Terminal Aerodrome Forecast
Issued by NWS

Home | Current Version | Previous Version | Text Only | Print | Product List | Glossary On
Versions: 1 2 3 4 5 6 7 8 9 10 11 12 13 14 15 16 17 18 19
000
FTUS45 KVEF 300300 AAB
TAFBIH
TAF AMD
KBIH 300301Z 3003/3024 34007KT P6SM SCT110 BKN250
     FM301800 VRB05KT P6SM BKN110 BKN250=

USA.gov is the U.S. government's official web portal to all federal, state and local government web resources and services.